aviador You're here:

KDHN Decoded Metar

DOTHAN in AL, USA
Report Time2017-07-26 03:53:00
UTC Time2017-07-26 04:39:44
Flight Rules vfr VFR
Wind010° at 04 kt
W.Decomp.*RWY 36: 3.9 kt HW 0.9 kt RCW
RWY 32: 2.4 kt HW 3.2 kt RCW
W.Rank010° ranks 33
Current wind is below 010° avg. (5.7)
Visibility9999 m
Phenomena:N/A
Clouds:N/A
CeilingNone
Temp24°C (ISA +10)
Dew Point24°C (100% RH)
QNH1021 hPa
Density Alt1,624 ft
Elevation371 ft
Report Wrong Elevation
Raw Report
METAR KDHN 260353Z AUTO 01004KT 10SM CLR 24/24 A3014 RMK AO2 SLP201
T02440244=

Extra information for KDHN:More info

Metar Taf Metar & Taf Last 4 Metars F.Rules Stats Wind Profile Meteogram Temp Stats Airport Information Weather charts Add Link Nearby VenuesMetar ALERT Operation Metar Decoded Social comments

AIRNAV info for KDHN